createdAt,value
2022-08-20T00:00:17.600Z,5.63
2022-08-20T00:02:46.434Z,6.05
2022-08-20T00:05:13.404Z,6.15
2022-08-20T00:07:39.323Z,6.25
2022-08-20T00:10:07.900Z,5.80
2022-08-20T00:12:34.295Z,5.50
2022-08-20T00:17:41.544Z,6.00
2022-08-20T00:20:11.794Z,6.43
2022-08-20T00:22:37.748Z,6.10
2022-08-20T00:25:10.712Z,6.22
2022-08-20T00:27:36.697Z,6.70
2022-08-20T00:30:04.538Z,7.03
2022-08-20T00:32:30.570Z,7.10
2022-08-20T00:39:59.580Z,7.22
2022-08-20T00:42:25.547Z,7.22
2022-08-20T00:44:51.426Z,7.38
2022-08-20T00:47:17.410Z,6.80
2022-08-20T00:49:43.990Z,7.55
2022-08-20T00:52:15.188Z,7.25
2022-08-20T00:54:44.439Z,7.10
2022-08-20T01:02:12.702Z,6.45
2022-08-20T01:04:39.051Z,6.90
2022-08-20T01:07:06.370Z,6.95
2022-08-20T01:09:49.973Z,6.55
2022-08-20T01:12:19.448Z,6.93
2022-08-20T01:14:46.755Z,6.65
2022-08-20T01:17:16.482Z,7.18
2022-08-20T01:26:45.312Z,7.88
2022-08-20T01:29:15.216Z,7.65
2022-08-20T01:31:41.979Z,8.27
2022-08-20T01:34:10.443Z,8.15
2022-08-20T01:36:44.265Z,8.55
2022-08-20T01:39:14.930Z,8.40
2022-08-20T01:41:51.892Z,8.45
2022-08-20T01:49:23.646Z,8.57
2022-08-20T01:51:51.119Z,7.90
2022-08-20T01:54:17.721Z,8.27
2022-08-20T01:56:53.590Z,8.40
2022-08-20T01:59:19.678Z,9.32
2022-08-20T02:01:46.903Z,8.75
2022-08-20T02:04:15.389Z,8.85
2022-08-20T02:11:45.045Z,8.13
2022-08-20T02:14:11.060Z,7.57
2022-08-20T02:16:40.566Z,8.27
2022-08-20T02:19:10.850Z,8.02
2022-08-20T02:21:39.586Z,7.72
2022-08-20T02:24:05.974Z,7.55
2022-08-20T02:26:34.803Z,7.68
2022-08-20T02:34:22.203Z,8.15
2022-08-20T02:36:49.164Z,7.50
2022-08-20T02:39:15.080Z,7.78
2022-08-20T02:41:41.164Z,8.65
2022-08-20T02:44:08.138Z,8.45
2022-08-20T02:46:35.116Z,9.25
2022-08-20T02:49:01.124Z,8.93
2022-08-20T02:54:05.165Z,9.52
2022-08-20T02:56:31.255Z,10.73
2022-08-20T02:58:57.126Z,12.30
2022-08-20T03:01:23.093Z,12.07
2022-08-20T03:03:49.327Z,13.82
2022-08-20T03:06:15.974Z,13.82
2022-08-20T03:08:42.530Z,13.57
2022-08-20T03:16:13.082Z,13.80
2022-08-20T03:18:42.532Z,14.95
2022-08-20T03:21:09.896Z,16.02
2022-08-20T03:23:36.804Z,15.80
2022-08-20T03:26:09.091Z,16.50
2022-08-20T03:28:35.205Z,16.15
2022-08-20T03:31:01.353Z,17.48
2022-08-20T03:36:08.223Z,16.05
2022-08-20T03:38:34.717Z,18.50
2022-08-20T03:41:01.653Z,17.35
2022-08-20T03:43:28.114Z,16.20
2022-08-20T03:45:54.011Z,16.20
2022-08-20T03:48:20.795Z,17.15
2022-08-20T03:50:49.029Z,18.20
2022-08-20T03:58:17.705Z,19.25
2022-08-20T04:00:47.480Z,19.08
2022-08-20T04:03:14.473Z,19.67
2022-08-20T04:05:41.400Z,20.08
2022-08-20T04:08:08.857Z,19.48
2022-08-20T04:10:35.134Z,20.30
2022-08-20T04:13:03.155Z,19.50
2022-08-20T04:20:33.971Z,18.60
2022-08-20T04:23:00.063Z,20.25
2022-08-20T04:25:26.270Z,21.95
2022-08-20T04:27:52.938Z,23.52
2022-08-20T04:30:20.209Z,21.83
2022-08-20T04:32:46.127Z,21.52
2022-08-20T04:35:13.843Z,21.13
2022-08-20T04:44:13.882Z,19.13
2022-08-20T04:46:41.779Z,20.52
2022-08-20T04:49:07.682Z,19.90
2022-08-20T04:51:33.865Z,20.20
2022-08-20T04:54:00.805Z,19.58
2022-08-20T04:56:29.633Z,19.52
2022-08-20T04:58:57.632Z,18.17
2022-08-20T05:06:29.541Z,18.73
2022-08-20T05:08:57.126Z,17.55
2022-08-20T05:11:34.845Z,16.38
2022-08-20T05:14:04.664Z,17.42
2022-08-20T05:16:30.486Z,17.60
2022-08-20T05:18:56.438Z,19.10
2022-08-20T05:21:22.346Z,18.50
2022-08-20T05:28:24.982Z,16.83
2022-08-20T05:30:52.037Z,18.08
2022-08-20T05:33:20.606Z,19.33
2022-08-20T05:35:49.089Z,18.67
2022-08-20T05:38:16.880Z,19.02
2022-08-20T05:40:43.757Z,20.45
2022-08-20T05:43:09.791Z,21.40
2022-08-20T05:48:16.024Z,21.20
2022-08-20T05:50:44.325Z,20.95
2022-08-20T05:53:11.506Z,20.23
2022-08-20T05:55:38.806Z,20.02
2022-08-20T05:58:13.210Z,21.10
2022-08-20T06:00:39.252Z,20.77
2022-08-20T06:03:05.139Z,20.27
2022-08-20T06:08:40.621Z,18.33
2022-08-20T06:11:07.347Z,16.75
2022-08-20T06:13:33.742Z,18.23
2022-08-20T06:16:00.618Z,18.05
2022-08-20T06:18:27.999Z,17.25
2022-08-20T06:20:55.295Z,16.23
2022-08-20T06:23:21.566Z,16.52
2022-08-20T06:30:47.151Z,17.33
2022-08-20T06:33:13.229Z,17.80
2022-08-20T06:35:39.355Z,17.65
2022-08-20T06:38:05.295Z,17.63
2022-08-20T06:40:31.306Z,19.10
2022-08-20T06:42:57.431Z,19.35
2022-08-20T06:45:27.328Z,20.67
2022-08-20T06:52:58.594Z,20.60
2022-08-20T06:55:25.158Z,19.25
2022-08-20T06:57:59.076Z,19.60
2022-08-20T07:00:25.615Z,19.10
2022-08-20T07:02:51.533Z,17.85
2022-08-20T07:05:17.533Z,17.27
2022-08-20T07:07:44.547Z,18.55
2022-08-20T07:12:50.178Z,17.58
2022-08-20T07:15:17.534Z,17.92
2022-08-20T07:17:48.785Z,18.25
2022-08-20T07:20:14.898Z,17.63
2022-08-20T07:22:40.795Z,18.38
2022-08-20T07:25:11.167Z,17.90
2022-08-20T07:27:37.567Z,16.95
2022-08-20T07:35:11.219Z,14.80
2022-08-20T07:37:38.278Z,15.13
2022-08-20T07:40:05.599Z,14.68
2022-08-20T07:42:31.562Z,15.77
2022-08-20T07:44:57.529Z,16.15
2022-08-20T07:47:23.432Z,15.73
2022-08-20T07:49:49.400Z,15.52
2022-08-20T07:57:19.020Z,15.20
2022-08-20T07:59:44.945Z,16.60
2022-08-20T08:02:12.224Z,16.40
2022-08-20T08:04:38.588Z,16.08
2022-08-20T08:07:05.210Z,16.15
2022-08-20T08:09:33.230Z,15.85
2022-08-20T08:11:59.610Z,16.45
2022-08-20T08:21:00.273Z,19.52
2022-08-20T08:23:31.724Z,21.20
2022-08-20T08:25:58.401Z,20.70
2022-08-20T08:28:24.376Z,21.42
2022-08-20T08:30:50.284Z,20.95
2022-08-20T08:33:21.981Z,19.80
2022-08-20T08:35:47.892Z,19.92
2022-08-20T08:43:17.379Z,22.00
2022-08-20T08:45:55.628Z,21.57
2022-08-20T08:48:29.287Z,22.13
2022-08-20T08:50:55.329Z,20.75
2022-08-20T08:53:25.312Z,21.67
2022-08-20T08:55:51.422Z,21.02
2022-08-20T08:58:18.008Z,21.45
2022-08-20T09:03:27.427Z,20.52
2022-08-20T09:05:55.488Z,22.05
2022-08-20T09:08:25.067Z,23.73
2022-08-20T09:10:51.000Z,21.17
2022-08-20T09:13:16.991Z,20.80
2022-08-20T09:15:43.103Z,21.52
2022-08-20T09:18:09.067Z,20.75
2022-08-20T09:25:44.131Z,20.98
2022-08-20T09:28:10.180Z,21.52
2022-08-20T09:30:38.581Z,23.52
2022-08-20T09:33:04.878Z,21.35
2022-08-20T09:35:32.316Z,22.67
2022-08-20T09:38:05.180Z,21.85
2022-08-20T09:57:05.422Z,18.40
2022-08-20T09:59:33.381Z,19.60
2022-08-20T10:05:43.839Z,17.88
2022-08-20T10:08:13.067Z,16.92
2022-08-20T10:10:39.208Z,16.33
2022-08-20T10:13:06.749Z,15.38
2022-08-20T10:15:35.632Z,16.63
2022-08-20T10:18:03.199Z,15.73
2022-08-20T10:20:31.097Z,14.75
2022-08-20T10:27:40.056Z,13.50
2022-08-20T10:30:07.550Z,13.00
2022-08-20T10:32:34.059Z,12.43
2022-08-20T10:35:00.762Z,12.57
2022-08-20T10:37:27.067Z,11.27
2022-08-20T10:39:54.327Z,10.75
2022-08-20T10:42:20.876Z,10.85
2022-08-20T10:44:47.772Z,11.20
2022-08-20T10:52:21.943Z,10.13
2022-08-20T10:54:48.528Z,9.55
2022-08-20T10:57:17.740Z,9.80
2022-08-20T10:59:46.382Z,9.75
2022-08-20T11:02:12.555Z,9.75
2022-08-20T11:04:38.734Z,8.27
2022-08-20T11:07:13.800Z,8.13
2022-08-20T11:12:35.531Z,7.05
2022-08-20T11:15:01.500Z,6.93
2022-08-20T11:17:31.120Z,7.00
2022-08-20T11:19:59.535Z,7.05
2022-08-20T11:22:26.300Z,7.18
2022-08-20T11:24:52.764Z,6.10
2022-08-20T11:27:23.082Z,6.13
2022-08-20T11:34:55.618Z,6.03
2022-08-20T11:37:23.821Z,5.78
2022-08-20T11:39:50.253Z,6.03
2022-08-20T11:42:16.683Z,5.32
2022-08-20T11:44:42.759Z,5.10
2022-08-20T11:47:21.141Z,4.97
2022-08-20T11:49:47.191Z,5.47
2022-08-20T11:52:13.951Z,5.30
2022-08-20T11:59:56.021Z,4.78
2022-08-20T12:02:22.259Z,5.07
2022-08-20T12:04:48.692Z,4.68
2022-08-20T12:07:17.383Z,4.40
2022-08-20T12:09:51.400Z,4.63
2022-08-20T12:12:21.619Z,5.15
2022-08-20T12:14:49.047Z,4.75
2022-08-20T12:20:28.678Z,4.40
2022-08-20T12:22:54.732Z,4.60
2022-08-20T12:25:20.712Z,4.57
2022-08-20T12:27:46.844Z,4.35
2022-08-20T12:30:15.389Z,4.28
2022-08-20T12:32:41.556Z,4.97
2022-08-20T12:35:09.242Z,4.00
2022-08-20T12:42:46.318Z,3.70
2022-08-20T12:45:12.287Z,3.15
2022-08-20T12:47:45.052Z,4.03
2022-08-20T12:50:13.125Z,4.57
2022-08-20T12:52:40.340Z,4.00
2022-08-20T12:55:08.714Z,4.25
2022-08-20T12:57:37.319Z,4.70
2022-08-20T13:03:12.176Z,3.60
2022-08-20T13:05:38.708Z,4.15
2022-08-20T13:08:11.677Z,2.88
2022-08-20T13:10:44.387Z,3.30
2022-08-20T13:13:14.822Z,3.05
2022-08-20T13:15:46.170Z,4.15
2022-08-20T13:18:18.834Z,3.53
2022-08-20T13:23:36.591Z,3.85
2022-08-20T13:26:06.433Z,4.45
2022-08-20T13:28:32.453Z,5.20
2022-08-20T13:31:00.640Z,3.70
2022-08-20T13:33:27.329Z,3.05
2022-08-20T13:35:58.404Z,3.30
2022-08-20T13:38:24.804Z,3.78
2022-08-20T13:43:52.462Z,4.70
2022-08-20T13:46:21.751Z,4.55
2022-08-20T13:48:48.266Z,4.43
2022-08-20T13:51:14.711Z,4.85
2022-08-20T13:53:45.329Z,4.25
2022-08-20T13:56:13.330Z,4.53
2022-08-20T13:58:39.726Z,4.32
2022-08-20T14:01:06.838Z,4.53
2022-08-20T14:08:36.285Z,4.78
2022-08-20T14:11:02.648Z,3.97
2022-08-20T14:13:28.692Z,4.10
2022-08-20T14:15:55.198Z,4.05
2022-08-20T14:18:21.864Z,3.80
2022-08-20T14:20:48.538Z,4.22
2022-08-20T14:23:18.407Z,4.53
2022-08-20T14:30:07.105Z,4.05
2022-08-20T14:32:33.095Z,3.30
2022-08-20T14:34:59.767Z,2.85
2022-08-20T14:37:31.549Z,2.50
2022-08-20T14:39:59.093Z,2.35
2022-08-20T14:42:26.634Z,2.53
2022-08-20T14:44:53.681Z,2.67
2022-08-20T14:50:19.316Z,2.80
2022-08-20T14:52:45.838Z,2.07
2022-08-20T14:55:14.434Z,2.47
2022-08-20T14:57:41.056Z,2.60
2022-08-20T15:00:10.030Z,2.58
2022-08-20T15:02:37.447Z,2.03
2022-08-20T15:05:04.269Z,2.33
2022-08-20T15:11:43.380Z,2.05
2022-08-20T15:14:09.661Z,2.20
2022-08-20T15:16:36.197Z,2.63
2022-08-20T15:19:03.041Z,2.25
2022-08-20T15:21:28.937Z,2.08
2022-08-20T15:24:18.974Z,2.42
2022-08-20T15:26:46.265Z,1.98
2022-08-20T15:34:17.832Z,2.60
2022-08-20T15:36:44.294Z,3.92
2022-08-20T15:39:10.189Z,2.42
2022-08-20T15:41:36.106Z,1.88
2022-08-20T15:44:02.445Z,2.10
2022-08-20T15:46:31.115Z,2.25
2022-08-20T15:49:02.050Z,2.60
2022-08-20T15:56:03.232Z,2.50
2022-08-20T15:58:36.799Z,2.03
2022-08-20T16:01:25.406Z,1.90
2022-08-20T16:04:13.317Z,2.20
2022-08-20T16:06:41.973Z,2.55
2022-08-20T16:09:37.354Z,2.08
2022-08-20T16:17:08.025Z,1.98
2022-08-20T16:19:43.881Z,2.60
2022-08-20T16:22:15.019Z,1.90
2022-08-20T16:24:41.043Z,2.25
2022-08-20T16:27:13.358Z,2.78
2022-08-20T16:29:47.014Z,2.03
2022-08-20T16:32:21.540Z,2.25
2022-08-20T16:40:11.864Z,1.65
2022-08-20T16:42:40.483Z,1.75
2022-08-20T16:45:12.889Z,1.80
2022-08-20T16:47:38.951Z,1.90
2022-08-20T16:50:10.096Z,1.90
2022-08-20T16:52:36.017Z,1.73
2022-08-20T16:55:03.124Z,2.30
2022-08-20T17:02:32.329Z,2.30
2022-08-20T17:05:06.686Z,2.25
2022-08-20T17:07:43.239Z,1.80
2022-08-20T17:10:16.101Z,1.92
2022-08-20T17:12:43.144Z,1.90
2022-08-20T17:15:19.416Z,1.80
2022-08-20T17:17:46.018Z,2.00
2022-08-20T17:25:18.249Z,1.85
2022-08-20T17:27:45.551Z,2.50
2022-08-20T17:30:20.465Z,2.03
2022-08-20T17:32:57.570Z,2.00
2022-08-20T17:35:30.022Z,1.88
2022-08-20T17:37:57.070Z,2.03
2022-08-20T17:40:33.783Z,1.80
2022-08-20T17:47:39.062Z,1.80
2022-08-20T17:50:12.118Z,2.35
2022-08-20T17:52:45.706Z,1.80
2022-08-20T17:55:12.278Z,2.20
2022-08-20T17:57:44.213Z,1.67
2022-08-20T18:00:16.637Z,1.52
2022-08-20T18:02:43.383Z,1.75
2022-08-20T18:10:14.445Z,2.28
2022-08-20T18:12:44.365Z,2.10
2022-08-20T18:15:16.539Z,2.00
2022-08-20T18:18:11.071Z,1.70
2022-08-20T18:20:49.625Z,2.20
2022-08-20T18:23:22.606Z,2.05
2022-08-20T18:25:54.383Z,2.30
2022-08-20T18:33:29.712Z,1.60
2022-08-20T18:36:05.364Z,1.48
2022-08-20T18:38:32.032Z,1.35
2022-08-20T18:41:12.633Z,2.20
2022-08-20T18:43:39.732Z,1.80
2022-08-20T18:46:11.963Z,1.73
2022-08-20T18:51:41.736Z,1.90
2022-08-20T18:54:08.177Z,1.30
2022-08-20T18:56:40.256Z,1.63
2022-08-20T18:59:12.620Z,1.95
2022-08-20T19:01:40.980Z,1.42
2022-08-20T19:04:23.009Z,1.70
2022-08-20T19:06:57.335Z,1.75
2022-08-20T19:14:59.113Z,2.08
2022-08-20T19:17:37.088Z,1.52
2022-08-20T19:20:06.051Z,1.90
2022-08-20T19:22:33.433Z,2.00
2022-08-20T19:24:59.593Z,1.73
2022-08-20T19:27:27.382Z,1.65
2022-08-20T19:29:56.728Z,1.50
2022-08-20T19:37:40.215Z,2.40
2022-08-20T19:40:25.698Z,2.30
2022-08-20T19:42:56.014Z,1.92
2022-08-20T19:45:27.461Z,2.20
2022-08-20T19:48:01.283Z,2.30
2022-08-20T19:50:35.775Z,2.05
2022-08-20T19:56:25.810Z,2.22
2022-08-20T19:58:59.694Z,1.85
2022-08-20T20:01:26.353Z,1.65
2022-08-20T20:03:58.269Z,1.52
2022-08-20T20:06:24.893Z,1.75
2022-08-20T20:08:54.209Z,1.80
2022-08-20T20:11:27.295Z,1.70
2022-08-20T20:18:27.054Z,1.55
2022-08-20T20:20:57.474Z,1.75
2022-08-20T20:23:25.677Z,1.63
2022-08-20T20:25:56.575Z,1.80
2022-08-20T20:28:25.785Z,1.70
2022-08-20T20:30:51.930Z,1.50
2022-08-20T20:33:23.534Z,1.63
2022-08-20T20:40:54.567Z,1.48
2022-08-20T20:43:26.013Z,1.65
2022-08-20T20:46:02.996Z,1.73
2022-08-20T20:48:38.760Z,2.13
2022-08-20T20:51:13.805Z,2.30
2022-08-20T20:53:53.369Z,2.42
2022-08-20T20:59:35.033Z,2.42
2022-08-20T21:02:01.356Z,2.20
2022-08-20T21:04:27.400Z,2.08
2022-08-20T21:06:55.977Z,2.15
2022-08-20T21:09:23.329Z,2.33
2022-08-20T21:11:49.852Z,2.33
2022-08-20T21:14:16.712Z,2.17
2022-08-20T21:19:21.916Z,2.13
2022-08-20T21:21:47.912Z,2.47
2022-08-20T21:24:13.928Z,2.92
2022-08-20T21:26:40.370Z,1.77
2022-08-20T21:29:08.492Z,2.53
2022-08-20T21:31:39.828Z,2.60
2022-08-20T21:34:11.298Z,2.30
2022-08-20T21:39:18.155Z,2.70
2022-08-20T21:41:44.483Z,2.45
2022-08-20T21:44:22.111Z,2.80
2022-08-20T21:46:52.090Z,2.55
2022-08-20T21:49:18.490Z,2.75
2022-08-20T21:51:44.523Z,2.38
2022-08-20T21:54:10.621Z,2.42
2022-08-20T22:01:38.826Z,2.70
2022-08-20T22:04:05.140Z,2.60
2022-08-20T22:06:31.790Z,3.05
2022-08-20T22:08:58.248Z,3.35
2022-08-20T22:11:24.172Z,2.63
2022-08-20T22:13:50.514Z,2.65
2022-08-20T22:16:18.541Z,3.03
2022-08-20T22:21:39.851Z,2.58
2022-08-20T22:24:08.142Z,2.80
2022-08-20T22:26:37.385Z,2.70
2022-08-20T22:29:04.286Z,3.35
2022-08-20T22:31:34.152Z,3.28
2022-08-20T22:34:00.884Z,2.90
2022-08-20T22:36:27.481Z,3.20
2022-08-20T22:43:57.414Z,3.60
2022-08-20T22:46:26.822Z,3.60
2022-08-20T22:48:53.345Z,3.47
2022-08-20T22:51:21.944Z,3.75
2022-08-20T22:53:48.789Z,3.40
2022-08-20T22:56:19.942Z,3.35
2022-08-20T22:58:47.811Z,2.90
2022-08-20T23:06:19.322Z,2.90
2022-08-20T23:08:45.258Z,3.05
2022-08-20T23:11:12.096Z,2.80
2022-08-20T23:13:38.009Z,3.55
2022-08-20T23:16:05.944Z,2.67
2022-08-20T23:18:32.129Z,2.63
2022-08-20T23:20:58.034Z,2.80
2022-08-20T23:26:01.714Z,2.97
2022-08-20T23:28:27.788Z,2.90
2022-08-20T23:30:53.669Z,2.90
2022-08-20T23:33:19.676Z,3.10
2022-08-20T23:35:46.048Z,2.92
2022-08-20T23:38:12.616Z,3.50
2022-08-20T23:40:38.534Z,2.95
2022-08-20T23:46:20.199Z,2.50
2022-08-20T23:48:46.111Z,3.20
2022-08-20T23:51:12.031Z,2.97
2022-08-20T23:53:38.083Z,2.70
2022-08-20T23:56:04.227Z,3.25
2022-08-20T23:58:30.101Z,2.85
